Airfield :







YOU CAN JOIN US ON...

 
LOGIN :

Register | Disclaimer

   EN    FR    IT 

 









Legend :    VFR   Marginal VFR   IFR   Intensive IFR   Very Intensive IFR
Visi :
Ceiling :
>= 8 km
>= 3000ft
5 to 8 km
1000 to 3000 ft
1500m to 5 km
500 to 1000 ft
800 to 1500m
200 to 500 ft
< 800m
< 200 ft
Symbols :   Thunderstorms  Fog  Heavy snow  Heavy precipitations  Wind > 20 kt






- Airport Elevation : 122 ft
- IATA code : YTQ


CYTQ - Tasiujaq

CURRENT METAR :
  • 051916Z 29020G26KT 3SM -SN DRSN OVC008 M09/M12 A2997 RMK SC8 SLP154

EXPIRED METARs :
  • 051800Z 30021G28KT 3SM DRSN OVC010 M10/M12 A2996 RMK SC8 SLP150
  • 051700Z 29021G29KT 3SM DRSN OVC012 M10/M13 A2997 RMK SC8 SLP155
  • 051600Z 29023G28KT 6SM -SN OVC010 M10/M13 A2999 RMK SC8 SLP160
  • 051500Z 30018G24KT 6SM -SN OVC012 M10/M14 A3002 RMK SC8 SLP172

TAF AMD TAF CYTQ
Valid from the 05 at 18:00 until the 05 at 22:00 UTC


051826Z 0518/0522 30018G28KT 6SM -SN OVC010
TEMPO 0518/0520 1 1/2SM -SN BLSN OVC008
PROB30 0518/0520 1/2SM -SN BLSN
FM052000 30018KT 2SM -SN BLSN OVC020
TEMPO 0520/0522 6SM -SN OVC030
PROB30 0520/0522 1 1/2SM -SN BLSN RMK NXT FCST BY 061500Z
CZUL FIR / North America



MET'MAP, your aeronautical weather chart ! - Copyright ORBIFLY December 2007 - Disclaimer

ORBIFLY MET'MAP TEAM :

Programming & Development : Alexandra Zaïnal
Original concept : Baudouin d'Aumeries
Technical & hardware support : Manuel Goepfert
Assistance : Marc-Olivier Méhu




SOURCES & CREDITS :

   NOAA